createdAt,value
2018-10-06T00:00:37.542Z,11.68
2018-10-06T00:03:08.177Z,7.62
2018-10-06T00:05:38.805Z,7.85
2018-10-06T00:08:09.422Z,8.83
2018-10-06T00:10:40.026Z,13.35
2018-10-06T00:13:10.684Z,7.25
2018-10-06T00:15:41.481Z,9.58
2018-10-06T00:18:12.110Z,6.70
2018-10-06T00:20:42.742Z,6.83
2018-10-06T00:23:13.489Z,13.43
2018-10-06T00:25:44.077Z,10.18
2018-10-06T00:28:14.732Z,11.90
2018-10-06T00:30:45.503Z,9.15
2018-10-06T00:33:16.325Z,8.30
2018-10-06T00:35:46.929Z,10.65
2018-10-06T00:38:17.623Z,10.82
2018-10-06T00:40:48.209Z,8.13
2018-10-06T00:43:19.007Z,8.68
2018-10-06T00:45:49.998Z,8.23
2018-10-06T00:48:20.631Z,9.68
2018-10-06T00:50:51.426Z,8.60
2018-10-06T00:53:22.053Z,9.13
2018-10-06T00:55:52.670Z,9.20
2018-10-06T00:58:23.265Z,7.55
2018-10-06T01:00:53.916Z,11.45
2018-10-06T01:03:24.513Z,12.13
2018-10-06T01:05:55.181Z,10.40
2018-10-06T01:08:25.794Z,10.38
2018-10-06T01:10:56.421Z,9.73
2018-10-06T01:13:27.202Z,9.93
2018-10-06T01:15:57.841Z,10.35
2018-10-06T01:18:28.428Z,9.60
2018-10-06T01:20:59.062Z,7.53
2018-10-06T01:23:29.670Z,11.53
2018-10-06T01:26:00.297Z,13.08
2018-10-06T01:28:30.885Z,8.58
2018-10-06T01:31:01.513Z,9.53
2018-10-06T01:33:32.129Z,9.78
2018-10-06T01:36:02.785Z,7.62
2018-10-06T01:38:33.634Z,9.90
2018-10-06T01:41:04.250Z,9.53
2018-10-06T01:43:34.869Z,8.33
2018-10-06T01:46:05.580Z,10.00
2018-10-06T01:48:37.273Z,11.38
2018-10-06T01:51:08.119Z,8.63
2018-10-06T01:53:38.885Z,9.15
2018-10-06T01:56:09.490Z,8.38
2018-10-06T01:58:40.117Z,8.50
2018-10-06T02:01:10.713Z,7.75
2018-10-06T02:03:41.348Z,8.48
2018-10-06T02:06:11.969Z,7.47
2018-10-06T02:08:42.573Z,7.12
2018-10-06T02:11:13.210Z,11.45
2018-10-06T02:13:43.874Z,10.03
2018-10-06T02:16:14.844Z,12.28
2018-10-06T02:18:45.470Z,12.00
2018-10-06T02:21:16.306Z,11.97
2018-10-06T02:23:46.976Z,11.95
2018-10-06T02:26:17.573Z,8.68
2018-10-06T02:28:48.410Z,10.00
2018-10-06T02:31:19.052Z,11.18
2018-10-06T02:33:49.654Z,9.15
2018-10-06T02:36:20.294Z,10.68
2018-10-06T02:38:50.952Z,10.98
2018-10-06T02:41:21.568Z,9.95
2018-10-06T02:43:52.465Z,13.32
2018-10-06T02:46:23.086Z,9.98
2018-10-06T02:48:53.895Z,11.00
2018-10-06T02:51:24.521Z,8.90
2018-10-06T02:53:55.143Z,12.60
2018-10-06T02:56:25.742Z,9.63
2018-10-06T02:58:56.373Z,10.53
2018-10-06T03:01:26.990Z,15.23
2018-10-06T03:03:57.598Z,9.68
2018-10-06T03:06:28.405Z,9.73
2018-10-06T03:08:59.033Z,10.75
2018-10-06T03:11:29.674Z,14.33
2018-10-06T03:14:00.276Z,9.23
2018-10-06T03:16:31.107Z,10.82
2018-10-06T03:19:01.719Z,12.78
2018-10-06T03:21:32.353Z,11.90
2018-10-06T03:24:02.946Z,10.93
2018-10-06T03:26:33.618Z,9.80
2018-10-06T03:29:04.438Z,10.38
2018-10-06T03:31:35.054Z,16.40
2018-10-06T03:34:05.678Z,9.25
2018-10-06T03:36:36.287Z,10.78
2018-10-06T03:39:07.315Z,9.53
2018-10-06T03:41:37.898Z,9.20
2018-10-06T03:44:08.856Z,8.90
2018-10-06T03:46:39.497Z,10.15
2018-10-06T03:49:10.138Z,9.23
2018-10-06T03:51:40.748Z,11.30
2018-10-06T03:54:12.332Z,13.08
2018-10-06T03:56:43.978Z,9.13
2018-10-06T03:59:14.638Z,12.03
2018-10-06T04:01:45.247Z,10.53
2018-10-06T04:04:15.858Z,7.50
2018-10-06T04:06:46.666Z,8.53
2018-10-06T04:09:17.298Z,11.40
2018-10-06T04:11:47.917Z,9.63
2018-10-06T04:14:18.540Z,9.58
2018-10-06T04:16:49.165Z,8.33
2018-10-06T04:19:19.750Z,8.98
2018-10-06T04:21:50.361Z,7.72
2018-10-06T04:24:20.945Z,9.00
2018-10-06T04:26:51.580Z,9.80
2018-10-06T04:29:22.188Z,10.78
2018-10-06T04:31:52.858Z,9.95
2018-10-06T04:34:23.464Z,11.48
2018-10-06T04:36:54.280Z,10.58
2018-10-06T04:39:24.954Z,13.70
2018-10-06T04:41:55.609Z,10.40
2018-10-06T04:44:26.276Z,12.75
2018-10-06T04:46:56.902Z,12.20
2018-10-06T04:49:27.555Z,10.60
2018-10-06T04:51:58.198Z,9.13
2018-10-06T04:54:28.795Z,9.70
2018-10-06T04:56:59.731Z,12.75
2018-10-06T04:59:30.445Z,12.55
2018-10-06T05:02:01.096Z,10.08
2018-10-06T05:04:31.925Z,10.50
2018-10-06T05:07:02.541Z,9.83
2018-10-06T05:09:33.178Z,12.23
2018-10-06T05:12:03.773Z,12.58
2018-10-06T05:14:34.624Z,12.00
2018-10-06T05:17:05.651Z,10.53
2018-10-06T05:19:36.290Z,12.53
2018-10-06T05:22:06.901Z,12.33
2018-10-06T05:24:37.638Z,11.33
2018-10-06T05:27:08.602Z,9.63
2018-10-06T05:29:39.242Z,12.90
2018-10-06T05:32:09.852Z,13.43
2018-10-06T05:34:40.482Z,11.28
2018-10-06T05:37:11.114Z,13.60
2018-10-06T05:39:41.755Z,13.65
2018-10-06T05:42:12.363Z,11.53
2018-10-06T05:44:43.036Z,15.83
2018-10-06T05:47:13.887Z,13.00
2018-10-06T05:49:44.512Z,10.78
2018-10-06T05:52:15.342Z,15.50
2018-10-06T05:54:45.937Z,11.15
2018-10-06T05:57:16.590Z,11.83
2018-10-06T05:59:47.407Z,10.03
2018-10-06T06:02:18.041Z,11.45
2018-10-06T06:04:48.766Z,11.08
2018-10-06T06:07:19.754Z,11.25
2018-10-06T06:09:50.584Z,10.30
2018-10-06T06:12:21.370Z,11.88
2018-10-06T06:14:51.961Z,13.85
2018-10-06T06:17:24.362Z,11.05
2018-10-06T06:19:54.985Z,13.98
2018-10-06T06:22:25.610Z,11.08
2018-10-06T06:24:56.457Z,11.35
2018-10-06T06:27:27.263Z,12.93
2018-10-06T06:29:58.236Z,13.83
2018-10-06T06:32:28.898Z,13.13
2018-10-06T06:34:59.534Z,18.30
2018-10-06T06:37:30.182Z,12.35
2018-10-06T06:40:00.876Z,12.80
2018-10-06T06:42:31.672Z,14.23
2018-10-06T06:45:02.309Z,13.30
2018-10-06T06:47:32.946Z,12.80
2018-10-06T06:50:03.578Z,13.15
2018-10-06T06:52:34.421Z,14.55
2018-10-06T06:55:05.843Z,15.63
2018-10-06T06:57:36.641Z,15.63
2018-10-06T07:00:07.335Z,17.17
2018-10-06T07:02:37.955Z,16.62
2018-10-06T07:05:08.596Z,17.75
2018-10-06T07:07:39.229Z,15.25
2018-10-06T07:10:09.874Z,13.95
2018-10-06T07:12:40.571Z,14.38
2018-10-06T07:15:11.358Z,14.73
2018-10-06T07:17:41.981Z,15.53
2018-10-06T07:20:12.970Z,15.50
2018-10-06T07:22:43.777Z,13.50
2018-10-06T07:25:14.477Z,15.40
2018-10-06T07:27:45.250Z,15.50
2018-10-06T07:30:15.882Z,13.48
2018-10-06T07:32:46.507Z,16.00
2018-10-06T07:35:17.162Z,15.45
2018-10-06T07:37:47.828Z,15.43
2018-10-06T07:40:18.475Z,13.55
2018-10-06T07:42:49.064Z,14.35
2018-10-06T07:45:19.850Z,15.95
2018-10-06T07:47:50.475Z,12.98
2018-10-06T07:50:21.101Z,11.50
2018-10-06T07:52:51.694Z,14.45
2018-10-06T07:55:22.338Z,10.98
2018-10-06T07:57:52.963Z,10.08
2018-10-06T08:00:23.734Z,9.35
2018-10-06T08:02:54.360Z,10.55
2018-10-06T08:05:24.974Z,10.20
2018-10-06T08:07:55.610Z,10.13
2018-10-06T08:10:26.215Z,10.50
2018-10-06T08:12:56.835Z,9.70
2018-10-06T08:15:27.429Z,8.83
2018-10-06T08:17:58.029Z,9.53
2018-10-06T08:20:28.630Z,7.42
2018-10-06T08:22:59.258Z,7.30
2018-10-06T08:25:29.891Z,8.30
2018-10-06T08:28:00.705Z,7.58
2018-10-06T08:30:31.309Z,7.28
2018-10-06T08:33:01.977Z,8.48
2018-10-06T08:35:32.586Z,6.92
2018-10-06T08:38:03.237Z,10.03
2018-10-06T08:40:33.845Z,6.00
2018-10-06T08:43:04.453Z,8.33
2018-10-06T08:45:35.082Z,9.43
2018-10-06T08:48:05.694Z,7.10
2018-10-06T08:50:36.339Z,5.58
2018-10-06T08:53:07.014Z,6.75
2018-10-06T08:55:37.641Z,4.75
2018-10-06T08:58:08.273Z,4.85
2018-10-06T09:00:38.876Z,5.65
2018-10-06T09:03:09.486Z,5.42
2018-10-06T09:05:40.085Z,6.10
2018-10-06T09:08:10.703Z,6.65
2018-10-06T09:10:41.347Z,5.08
2018-10-06T09:13:12.147Z,5.08
2018-10-06T09:15:42.730Z,5.08
2018-10-06T09:18:13.358Z,7.78
2018-10-06T09:20:43.978Z,7.05
2018-10-06T09:23:14.583Z,5.33
2018-10-06T09:25:45.557Z,5.25
2018-10-06T09:28:16.190Z,4.72
2018-10-06T09:30:46.977Z,5.85
2018-10-06T09:33:17.574Z,6.37
2018-10-06T09:35:48.194Z,7.30
2018-10-06T09:38:19.010Z,5.28
2018-10-06T09:40:49.631Z,5.22
2018-10-06T09:43:20.221Z,4.70
2018-10-06T09:45:51.059Z,5.05
2018-10-06T09:48:21.654Z,5.15
2018-10-06T09:50:52.277Z,6.80
2018-10-06T09:53:22.890Z,5.42
2018-10-06T09:55:53.538Z,6.15
2018-10-06T09:58:24.126Z,5.17
2018-10-06T10:00:59.914Z,6.25
2018-10-06T10:03:35.986Z,3.85
2018-10-06T10:06:07.154Z,10.48
2018-10-06T10:08:37.771Z,5.95
2018-10-06T10:11:08.385Z,4.35
2018-10-06T10:13:38.958Z,3.80
2018-10-06T10:16:09.575Z,4.90
2018-10-06T10:18:40.158Z,4.45
2018-10-06T10:21:10.777Z,3.05
2018-10-06T10:23:41.420Z,4.65
2018-10-06T10:26:12.199Z,6.40
2018-10-06T10:28:43.064Z,5.47
2018-10-06T10:31:13.818Z,4.45
2018-10-06T10:33:44.400Z,3.47
2018-10-06T10:36:14.729Z,4.60
2018-10-06T10:38:45.378Z,5.15
2018-10-06T10:41:16.050Z,4.73
2018-10-06T10:43:46.765Z,5.37
2018-10-06T10:46:17.598Z,3.87
2018-10-06T10:48:48.205Z,4.42
2018-10-06T10:51:18.889Z,6.87
2018-10-06T10:53:49.209Z,3.17
2018-10-06T10:56:19.535Z,4.17
2018-10-06T10:58:50.158Z,5.83
2018-10-06T11:01:20.453Z,3.77
2018-10-06T11:03:51.086Z,5.67
2018-10-06T11:06:21.643Z,6.40
2018-10-06T11:08:52.173Z,6.63
2018-10-06T11:11:22.846Z,4.97
2018-10-06T11:13:53.287Z,3.40
2018-10-06T11:16:23.609Z,5.53
2018-10-06T11:18:53.948Z,6.03
2018-10-06T11:21:24.589Z,7.00
2018-10-06T11:23:54.900Z,5.47
2018-10-06T11:26:25.881Z,4.33
2018-10-06T11:28:56.208Z,4.23
2018-10-06T11:31:26.506Z,4.37
2018-10-06T11:33:56.877Z,6.17
2018-10-06T11:36:27.193Z,5.63
2018-10-06T11:38:57.546Z,5.27
2018-10-06T11:41:28.077Z,6.50
2018-10-06T11:43:58.441Z,4.80
2018-10-06T11:46:28.745Z,3.53
2018-10-06T11:48:59.237Z,7.57
2018-10-06T11:51:29.538Z,5.97
2018-10-06T11:53:59.909Z,5.47
2018-10-06T11:56:30.209Z,3.83
2018-10-06T11:59:00.538Z,12.13
2018-10-06T12:01:30.885Z,3.23
2018-10-06T12:04:01.227Z,5.83
2018-10-06T12:06:31.294Z,4.00
2018-10-06T12:09:01.647Z,4.90
2018-10-06T12:11:31.945Z,4.73
2018-10-06T12:14:02.269Z,5.80
2018-10-06T12:16:32.605Z,3.67
2018-10-06T12:19:03.241Z,7.63
2018-10-06T12:21:33.570Z,5.13
2018-10-06T12:24:04.108Z,7.37
2018-10-06T12:26:34.454Z,5.40
2018-10-06T12:29:04.957Z,6.33
2018-10-06T12:31:35.295Z,4.70
2018-10-06T12:34:05.873Z,8.43
2018-10-06T12:36:36.254Z,4.30
2018-10-06T12:39:07.396Z,5.07
2018-10-06T12:41:37.766Z,6.63
2018-10-06T12:44:08.385Z,6.27
2018-10-06T12:46:38.710Z,3.77
2018-10-06T12:49:09.015Z,3.80
2018-10-06T12:51:39.373Z,8.30
2018-10-06T12:54:09.693Z,3.17
2018-10-06T12:56:40.014Z,5.60
2018-10-06T12:59:10.526Z,3.27
2018-10-06T13:01:40.841Z,4.73
2018-10-06T13:04:11.141Z,5.97
2018-10-06T13:06:41.513Z,4.73
2018-10-06T13:09:12.345Z,4.53
2018-10-06T13:11:42.669Z,4.93
2018-10-06T13:14:13.199Z,2.83
2018-10-06T13:16:43.533Z,6.00
2018-10-06T13:19:13.826Z,6.63
2018-10-06T13:21:44.158Z,4.10
2018-10-06T13:24:14.466Z,8.37
2018-10-06T13:26:45.522Z,3.93
2018-10-06T13:29:15.817Z,5.07
2018-10-06T13:31:46.194Z,3.17
2018-10-06T13:34:16.634Z,4.80
2018-10-06T13:36:46.969Z,4.73
2018-10-06T13:39:17.268Z,5.03
2018-10-06T13:41:47.621Z,2.90
2018-10-06T13:44:17.942Z,4.77
2018-10-06T13:46:48.626Z,3.87
2018-10-06T13:49:19.158Z,5.83
2018-10-06T13:51:49.484Z,5.00
2018-10-06T13:54:19.873Z,5.20
2018-10-06T13:56:50.370Z,7.37
2018-10-06T13:59:21.024Z,3.33
2018-10-06T14:01:51.538Z,2.27
2018-10-06T14:04:20.730Z,4.43
2018-10-06T14:06:51.022Z,2.93
2018-10-06T14:09:21.354Z,3.10
2018-10-06T14:11:51.690Z,4.27
2018-10-06T14:14:22.187Z,4.87
2018-10-06T14:16:52.508Z,3.50
2018-10-06T14:19:22.817Z,4.53
2018-10-06T14:21:53.195Z,5.67
2018-10-06T14:24:23.478Z,3.77
2018-10-06T14:26:53.817Z,4.20
2018-10-06T14:29:24.521Z,4.90
2018-10-06T14:31:54.874Z,5.77
2018-10-06T14:34:25.202Z,4.37
2018-10-06T14:36:55.557Z,6.40
2018-10-06T14:39:25.890Z,5.73
2018-10-06T14:41:56.229Z,2.77
2018-10-06T14:44:26.546Z,5.33
2018-10-06T14:46:57.433Z,5.70
2018-10-06T14:49:27.920Z,15.97
2018-10-06T14:51:58.295Z,3.87
2018-10-06T14:54:28.596Z,3.90
2018-10-06T14:56:59.051Z,6.63
2018-10-06T14:59:29.451Z,6.53
2018-10-06T15:01:59.789Z,6.37
2018-10-06T15:04:30.089Z,2.53
2018-10-06T15:07:00.606Z,4.67
2018-10-06T15:09:30.938Z,3.53
2018-10-06T15:12:01.234Z,3.50
2018-10-06T15:14:31.562Z,3.77
2018-10-06T15:17:01.902Z,7.23
2018-10-06T15:19:32.219Z,4.83
2018-10-06T15:22:02.719Z,11.33
2018-10-06T15:24:33.050Z,4.10
2018-10-06T15:27:09.921Z,4.77
2018-10-06T15:29:40.242Z,2.83
2018-10-06T15:32:10.595Z,17.60
2018-10-06T15:34:40.943Z,6.53
2018-10-06T15:37:11.307Z,4.03
2018-10-06T15:39:41.633Z,5.97
2018-10-06T15:42:11.940Z,7.03
2018-10-06T15:44:42.257Z,3.60
2018-10-06T15:47:12.610Z,3.43
2018-10-06T15:49:42.942Z,3.93
2018-10-06T15:52:13.432Z,4.30
2018-10-06T15:54:43.759Z,4.60
2018-10-06T15:57:14.099Z,4.87
2018-10-06T15:59:44.435Z,5.17
2018-10-06T16:02:14.768Z,3.80
2018-10-06T16:04:45.100Z,5.73
2018-10-06T16:07:15.622Z,5.10
2018-10-06T16:09:45.950Z,4.70
2018-10-06T16:12:16.485Z,3.97
2018-10-06T16:14:46.991Z,5.47
2018-10-06T16:17:17.335Z,4.57
2018-10-06T16:19:47.678Z,6.47
2018-10-06T16:22:18.054Z,5.37
2018-10-06T16:24:48.425Z,4.23
2018-10-06T16:27:18.785Z,4.33
2018-10-06T16:29:49.278Z,4.53
2018-10-06T16:32:19.606Z,4.70
2018-10-06T16:34:56.578Z,4.53
2018-10-06T16:37:26.939Z,6.57
2018-10-06T16:39:57.295Z,5.97
2018-10-06T16:42:27.593Z,4.07
2018-10-06T16:44:57.928Z,6.37
2018-10-06T16:47:28.246Z,4.23
2018-10-06T16:49:58.597Z,5.40
2018-10-06T16:52:28.922Z,6.87
2018-10-06T16:54:59.266Z,4.33
2018-10-06T16:57:29.573Z,4.33
2018-10-06T17:00:00.177Z,3.63
2018-10-06T17:02:30.630Z,4.10
2018-10-06T17:05:01.680Z,3.53
2018-10-06T17:07:32.030Z,6.57
2018-10-06T17:10:02.504Z,5.50
2018-10-06T17:12:33.082Z,7.27
2018-10-06T17:15:03.586Z,4.53
2018-10-06T17:17:33.895Z,5.80
2018-10-06T17:20:04.582Z,6.73
2018-10-06T17:22:34.911Z,7.57
2018-10-06T17:25:05.635Z,4.53
2018-10-06T17:27:34.962Z,7.57
2018-10-06T17:30:05.314Z,3.70
2018-10-06T17:32:35.641Z,7.40
2018-10-06T17:35:05.978Z,7.47
2018-10-06T17:37:36.338Z,6.60
2018-10-06T17:40:06.674Z,5.23
2018-10-06T17:42:37.377Z,6.27
2018-10-06T17:45:08.070Z,4.93
2018-10-06T17:47:38.632Z,4.97
2018-10-06T17:50:09.531Z,5.20
2018-10-06T17:52:39.992Z,4.30
2018-10-06T17:55:10.290Z,6.33
2018-10-06T17:57:40.653Z,7.30
2018-10-06T18:00:11.109Z,5.63
2018-10-06T18:02:41.426Z,5.10
2018-10-06T18:05:12.863Z,4.33
2018-10-06T18:07:43.198Z,5.50
2018-10-06T18:10:13.517Z,5.07
2018-10-06T18:12:43.838Z,6.43
2018-10-06T18:15:14.335Z,8.17
2018-10-06T18:17:44.847Z,8.73
2018-10-06T18:20:15.748Z,5.27
2018-10-06T18:22:47.444Z,5.83
2018-10-06T18:25:19.249Z,5.03
2018-10-06T18:27:51.194Z,7.35
2018-10-06T18:30:22.841Z,5.00
2018-10-06T18:32:54.765Z,5.83
2018-10-06T18:35:26.849Z,5.30
2018-10-06T18:37:58.892Z,8.98
2018-10-06T18:40:30.963Z,5.65
2018-10-06T18:43:02.710Z,8.48
2018-10-06T18:45:38.564Z,6.72
2018-10-06T18:48:13.678Z,5.60
2018-10-06T18:50:48.894Z,6.87
2018-10-06T18:53:24.000Z,6.90
2018-10-06T18:55:59.392Z,5.03
2018-10-06T18:58:34.685Z,7.05
2018-10-06T19:01:09.913Z,4.85
2018-10-06T19:03:45.192Z,5.12
2018-10-06T19:06:20.447Z,5.55
2018-10-06T19:08:55.633Z,5.15
2018-10-06T19:11:26.237Z,4.92
2018-10-06T19:13:56.890Z,5.65
2018-10-06T19:16:27.682Z,7.60
2018-10-06T19:18:58.349Z,5.12
2018-10-06T19:21:28.993Z,5.30
2018-10-06T19:23:59.654Z,5.35
2018-10-06T19:26:30.253Z,5.72
2018-10-06T19:29:00.870Z,4.72
2018-10-06T19:31:31.445Z,20.95
2018-10-06T19:34:02.076Z,6.33
2018-10-06T19:36:32.681Z,8.10
2018-10-06T19:39:03.446Z,6.03
2018-10-06T19:41:34.078Z,5.42
2018-10-06T19:44:04.737Z,7.67
2018-10-06T19:46:35.346Z,6.42
2018-10-06T19:49:05.981Z,5.95
2018-10-06T19:51:36.591Z,8.50
2018-10-06T19:54:07.390Z,5.33
2018-10-06T19:56:38.211Z,5.62
2018-10-06T19:59:08.822Z,6.83
2018-10-06T20:01:39.405Z,6.83
2018-10-06T20:04:10.092Z,9.80
2018-10-06T20:06:40.883Z,7.40
2018-10-06T20:09:11.993Z,5.17
2018-10-06T20:11:42.603Z,5.95
2018-10-06T20:14:13.204Z,4.87
2018-10-06T20:16:43.817Z,5.47
2018-10-06T20:19:14.482Z,8.18
2018-10-06T20:21:45.239Z,5.85
2018-10-06T20:24:15.841Z,5.30
2018-10-06T20:26:46.525Z,7.37
2018-10-06T20:29:17.314Z,6.60
2018-10-06T20:31:48.118Z,7.83
2018-10-06T20:34:18.710Z,6.15
2018-10-06T20:36:49.344Z,7.00
2018-10-06T20:39:19.954Z,5.28
2018-10-06T20:41:50.686Z,5.90
2018-10-06T20:44:21.265Z,6.53
2018-10-06T20:46:51.889Z,6.55
2018-10-06T20:49:24.064Z,5.75
2018-10-06T20:51:54.925Z,7.80
2018-10-06T20:54:27.090Z,7.37
2018-10-06T20:56:57.871Z,5.22
2018-10-06T20:59:28.478Z,5.97
2018-10-06T21:01:59.089Z,5.75
2018-10-06T21:04:29.909Z,6.50
2018-10-06T21:07:00.529Z,6.45
2018-10-06T21:09:31.145Z,5.87
2018-10-06T21:12:01.755Z,7.12
2018-10-06T21:14:32.406Z,5.87
2018-10-06T21:17:03.050Z,7.53
2018-10-06T21:19:32.522Z,6.83
2018-10-06T21:22:03.117Z,5.22
2018-10-06T21:24:33.973Z,5.83
2018-10-06T21:27:04.576Z,7.12
2018-10-06T21:29:35.276Z,7.62
2018-10-06T21:32:11.230Z,6.60
2018-10-06T21:34:55.833Z,6.08
2018-10-06T21:37:35.252Z,5.45
2018-10-06T21:40:18.932Z,6.80
2018-10-06T21:42:57.409Z,7.72
2018-10-06T21:45:34.945Z,6.72
2018-10-06T21:48:16.425Z,8.15
2018-10-06T21:50:54.872Z,6.12
2018-10-06T21:56:19.378Z,5.67
2018-10-06T21:58:57.125Z,7.42
2018-10-06T22:01:33.800Z,6.65
2018-10-06T22:04:09.286Z,7.10
2018-10-06T22:06:46.893Z,9.30
2018-10-06T22:09:22.731Z,5.60
2018-10-06T22:11:59.976Z,6.95
2018-10-06T22:14:37.422Z,6.00
2018-10-06T22:17:14.613Z,7.42
2018-10-06T22:19:57.214Z,6.42
2018-10-06T22:22:34.267Z,6.70
2018-10-06T22:27:56.470Z,6.40
2018-10-06T22:30:36.234Z,7.85
2018-10-06T22:33:13.083Z,6.28
2018-10-06T22:35:49.367Z,7.08
2018-10-06T22:38:28.502Z,7.17
2018-10-06T22:41:04.755Z,6.75
2018-10-06T22:43:42.935Z,6.40
2018-10-06T22:46:19.556Z,6.83
2018-10-06T22:48:55.507Z,7.03
2018-10-06T22:51:30.629Z,7.83
2018-10-06T22:54:05.179Z,9.18
2018-10-06T22:56:40.283Z,8.35
2018-10-06T22:59:15.830Z,8.30
2018-10-06T23:01:51.366Z,7.15
2018-10-06T23:04:29.300Z,5.50
2018-10-06T23:07:05.540Z,6.33
2018-10-06T23:09:42.224Z,6.12
2018-10-06T23:12:18.357Z,6.17
2018-10-06T23:14:54.771Z,6.60
2018-10-06T23:17:31.351Z,9.83
2018-10-06T23:20:07.527Z,6.40
2018-10-06T23:22:43.432Z,9.73
2018-10-06T23:25:19.924Z,6.25
2018-10-06T23:27:54.565Z,7.30
2018-10-06T23:30:29.190Z,6.17
2018-10-06T23:33:03.812Z,5.45
2018-10-06T23:35:39.525Z,5.53
2018-10-06T23:38:13.396Z,5.35
2018-10-06T23:40:48.162Z,6.33
2018-10-06T23:43:23.006Z,11.38
2018-10-06T23:45:57.004Z,6.45
2018-10-06T23:48:31.994Z,7.95
2018-10-06T23:51:06.099Z,5.37
2018-10-06T23:53:40.409Z,8.48
2018-10-06T23:56:15.323Z,8.75
2018-10-06T23:58:48.996Z,8.20
